Time;durP1;ratioP1;P1;durP2;ratioP2;P2;SDS_P1;SDS_P2;PMS_P1;PMS_P2;Temp;Humidity;BMP_temperature;BMP_pressure;BME280_temperature;BME280_humidity;BME280_pressure;Samples;Min_cycle;Max_cycle;Signal;HPM_P1;HPM_P2
2022/01/25 00:33:27;;;;;;;10.13;8.20;;;2.10;99.90;;;;;;5021162;28;20176;-70
2022/01/25 00:35:52;;;;;;;10.33;8.50;;;2.10;99.90;;;;;;5023673;28;20672;-70
2022/01/25 00:38:18;;;;;;;13.20;9.47;;;2.10;99.90;;;;;;5021990;28;20251;-70
2022/01/25 00:40:44;;;;;;;9.90;8.90;;;2.00;99.90;;;;;;5023779;28;20184;-70
2022/01/25 00:43:09;;;;;;;11.53;8.80;;;1.90;99.90;;;;;;5020589;28;20178;-70
2022/01/25 00:45:35;;;;;;;10.53;8.50;;;1.90;99.90;;;;;;5022194;28;20232;-70
2022/01/25 00:48:05;;;;;;;10.57;8.93;;;2.00;99.90;;;;;;5019358;28;20223;-70
2022/01/25 00:50:41;;;;;;;11.37;9.33;;;1.90;99.90;;;;;;5030274;28;20177;-70
2022/01/25 00:55:33;;;;;;;9.10;7.73;;;1.90;99.90;;;;;;5027829;28;20204;-70
2022/01/25 00:58:01;;;;;;;10.90;8.57;;;1.90;99.90;;;;;;5024969;28;20181;-70
2022/01/25 01:00:27;;;;;;;11.67;9.33;;;1.70;99.90;;;;;;5025306;28;20232;-70
2022/01/25 01:02:54;;;;;;;12.10;9.50;;;1.50;99.90;;;;;;5031895;28;20226;-70
2022/01/25 01:05:21;;;;;;;13.83;9.37;;;1.50;99.90;;;;;;5023637;28;20219;-70
2022/01/25 01:07:46;;;;;;;9.87;8.87;;;1.30;99.90;;;;;;5031980;28;20215;-70
2022/01/25 01:10:16;;;;;;;11.27;8.87;;;1.10;99.90;;;;;;5023618;28;20188;-70
2022/01/25 01:15:41;;;;;;;10.27;9.00;;;0.70;99.90;;;;;;5021692;28;20269;-70
2022/01/25 01:32:02;;;;;;;12.93;9.90;;;0.40;99.90;;;;;;5014634;28;20181;-70
2022/01/25 01:40:06;;;;;;;12.20;8.77;;;0.40;99.90;;;;;;5016889;28;20306;-70
2022/01/25 01:43:01;;;;;;;11.53;9.13;;;0.30;99.90;;;;;;5020458;28;20184;-70
2022/01/25 01:48:05;;;;;;;11.90;8.97;;;0.10;99.90;;;;;;5020948;28;20193;-70
2022/01/25 01:50:34;;;;;;;9.40;8.30;;;0.10;99.90;;;;;;5022850;28;20180;-70
2022/01/25 01:53:02;;;;;;;10.43;8.30;;;0.00;99.90;;;;;;5019053;28;20233;-70
2022/01/25 01:55:28;;;;;;;10.57;8.93;;;0.00;99.90;;;;;;5013427;28;20228;-70
2022/01/25 01:57:56;;;;;;;15.07;9.80;;;-0.10;99.90;;;;;;5015471;28;20654;-70
2022/01/25 02:00:27;;;;;;;12.60;10.27;;;-0.10;99.90;;;;;;5019259;28;20877;-70
2022/01/25 02:02:53;;;;;;;11.67;9.70;;;-0.30;99.90;;;;;;5018425;28;20181;-70
2022/01/25 02:05:19;;;;;;;14.70;9.80;;;-0.30;99.90;;;;;;5021925;28;20200;-70
2022/01/25 02:07:44;;;;;;;13.90;10.33;;;-0.30;99.90;;;;;;5020413;28;20189;-70
2022/01/25 02:10:10;;;;;;;12.73;9.00;;;-0.40;99.90;;;;;;5023295;28;20224;-70
2022/01/25 02:12:36;;;;;;;9.60;8.23;;;-0.40;99.90;;;;;;5020287;28;20319;-70
2022/01/25 02:15:04;;;;;;;10.90;9.40;;;-0.50;99.90;;;;;;5017015;28;20255;-70
2022/01/25 02:23:18;;;;;;;14.23;9.07;;;-0.60;99.90;;;;;;5017689;28;20602;-70
2022/01/25 02:25:49;;;;;;;9.97;8.90;;;-0.60;99.90;;;;;;5016594;28;20205;-70
2022/01/25 02:28:16;;;;;;;9.43;8.17;;;-0.60;99.90;;;;;;5020324;28;20192;-70
2022/01/25 02:30:42;;;;;;;9.67;8.67;;;-0.70;99.90;;;;;;5017215;28;20562;-70
2022/01/25 02:33:08;;;;;;;10.83;9.20;;;-0.70;99.90;;;;;;5019475;28;20276;-70
2022/01/25 02:35:34;;;;;;;13.97;8.97;;;-0.70;99.90;;;;;;5016445;28;20362;-70
2022/01/25 02:37:59;;;;;;;11.97;9.60;;;-0.70;99.90;;;;;;5018018;28;20546;-70
2022/01/25 02:40:25;;;;;;;11.43;9.43;;;-0.70;99.90;;;;;;5014578;28;20260;-70
2022/01/25 02:42:52;;;;;;;11.70;9.10;;;-0.70;99.90;;;;;;5015323;28;20695;-70
2022/01/25 02:45:18;;;;;;;12.07;9.03;;;-0.80;99.90;;;;;;5022708;28;20257;-70
2022/01/25 02:50:29;;;;;;;10.57;8.80;;;-0.80;99.90;;;;;;5022663;28;20709;-70
2022/01/25 02:52:55;;;;;;;10.97;9.13;;;-0.80;99.90;;;;;;5023056;28;20192;-70
2022/01/25 02:55:21;;;;;;;11.23;8.90;;;-0.80;99.90;;;;;;5018830;28;20212;-70
2022/01/25 02:57:47;;;;;;;9.87;8.40;;;-0.80;99.90;;;;;;5015904;28;20191;-70
2022/01/25 03:00:13;;;;;;;10.87;8.73;;;-0.80;99.90;;;;;;5023985;28;20291;-70
2022/01/25 03:02:39;;;;;;;11.27;9.80;;;-0.80;99.90;;;;;;5023421;28;20192;-70
2022/01/25 03:05:06;;;;;;;11.47;8.93;;;-0.90;99.90;;;;;;5020177;28;20235;-70
2022/01/25 03:07:33;;;;;;;11.87;9.03;;;-0.80;99.90;;;;;;5018284;28;20192;-70
2022/01/25 03:09:59;;;;;;;12.17;8.97;;;-0.80;99.90;;;;;;5022270;28;20231;-70
2022/01/25 03:12:42;;;;;;;13.00;9.63;;;-0.90;99.90;;;;;;5020206;28;20254;-70
2022/01/25 03:15:25;;;;;;;12.50;9.63;;;-0.90;99.90;;;;;;5018525;28;20405;-70
2022/01/25 03:17:56;;;;;;;15.43;10.77;;;-0.90;99.90;;;;;;5021178;28;20211;-70
2022/01/25 03:20:36;;;;;;;13.07;9.93;;;-1.00;99.90;;;;;;5020132;28;20544;-70
2022/01/25 03:23:15;;;;;;;13.47;9.47;;;-1.00;99.90;;;;;;5026885;28;20279;-70
2022/01/25 03:25:41;;;;;;;11.63;8.80;;;-1.00;99.90;;;;;;5024378;28;20215;-70
2022/01/25 03:28:06;;;;;;;12.17;9.37;;;-0.90;99.90;;;;;;5024672;28;20653;-70
2022/01/25 03:30:32;;;;;;;13.50;9.53;;;-0.80;99.90;;;;;;5021434;28;20196;-70
2022/01/25 03:32:58;;;;;;;12.70;9.53;;;-0.90;99.90;;;;;;5020171;28;20328;-70
2022/01/25 03:35:23;;;;;;;13.23;10.40;;;-0.90;99.90;;;;;;5022723;28;20208;-70
2022/01/25 03:37:49;;;;;;;11.97;9.90;;;-0.90;99.90;;;;;;5021151;28;20272;-70
2022/01/25 03:40:14;;;;;;;12.00;9.70;;;-1.00;99.90;;;;;;5026077;28;20185;-70
2022/01/25 03:42:40;;;;;;;10.33;9.00;;;-1.00;99.90;;;;;;5018613;28;20422;-70
2022/01/25 03:45:08;;;;;;;10.70;9.50;;;-1.00;99.90;;;;;;5022183;28;20213;-70
2022/01/25 03:47:45;;;;;;;12.53;10.13;;;-1.00;99.90;;;;;;5020757;28;20225;-70
2022/01/25 03:50:10;;;;;;;12.03;10.00;;;-1.00;99.90;;;;;;5027392;28;20187;-70
2022/01/25 03:52:37;;;;;;;13.67;9.63;;;-1.00;99.90;;;;;;5029790;28;20601;-70
2022/01/25 03:55:05;;;;;;;10.53;9.43;;;-1.00;99.90;;;;;;5025373;28;20699;-70
2022/01/25 03:57:31;;;;;;;11.47;9.67;;;-1.00;99.90;;;;;;5028373;28;20185;-70
2022/01/25 03:59:59;;;;;;;10.00;8.97;;;-1.10;99.90;;;;;;5028440;28;20203;-70
2022/01/25 04:02:27;;;;;;;11.37;9.57;;;-1.10;99.90;;;;;;5019792;28;20196;-70
2022/01/25 04:04:53;;;;;;;11.53;9.63;;;-1.10;99.90;;;;;;5028903;28;20208;-70
2022/01/25 04:07:28;;;;;;;12.33;9.27;;;-1.10;99.90;;;;;;5024477;28;20201;-70
2022/01/25 04:09:54;;;;;;;14.63;10.00;;;-1.10;99.90;;;;;;5024474;28;20215;-70
2022/01/25 04:12:19;;;;;;;13.87;9.40;;;-1.10;99.90;;;;;;5022759;28;20227;-70
2022/01/25 04:14:45;;;;;;;14.17;9.40;;;-1.10;99.90;;;;;;5027122;28;20216;-70
2022/01/25 04:17:16;;;;;;;11.97;9.43;;;-1.20;99.90;;;;;;5029076;28;20186;-71
2022/01/25 04:19:57;;;;;;;12.93;9.57;;;-1.20;99.90;;;;;;5030168;28;20184;-70
2022/01/25 04:27:24;;;;;;;13.00;10.43;;;-1.30;99.90;;;;;;5028582;28;20191;-69
2022/01/25 04:29:51;;;;;;;12.63;9.10;;;-1.40;99.90;;;;;;5021410;28;20196;-70
2022/01/25 04:32:17;;;;;;;13.67;9.90;;;-1.40;99.90;;;;;;5022671;28;20238;-71
2022/01/25 04:34:47;;;;;;;13.93;10.30;;;-1.40;99.90;;;;;;5023380;28;20589;-70
2022/01/25 04:51:13;;;;;;;11.97;9.47;;;-1.50;99.90;;;;;;5020860;28;20208;-70
2022/01/25 04:53:49;;;;;;;14.53;9.23;;;-1.40;99.90;;;;;;5017825;28;21043;-70
2022/01/25 04:56:35;;;;;;;13.87;9.33;;;-1.50;99.90;;;;;;5020582;28;20247;-70
2022/01/25 04:59:39;;;;;;;12.87;9.63;;;-1.50;99.90;;;;;;5035641;28;20184;-70
2022/01/25 05:01:59;;;;;;;13.13;8.97;;;-1.60;99.90;;;;;;5031276;28;20192;-70
2022/01/25 05:04:30;;;;;;;10.57;9.30;;;-1.60;99.90;;;;;;5028768;28;20571;-70
2022/01/25 05:07:04;;;;;;;11.37;9.23;;;-1.60;99.90;;;;;;5029377;28;20647;-70
2022/01/25 05:09:32;;;;;;;11.13;9.40;;;-1.60;99.90;;;;;;5032714;28;20546;-70
2022/01/25 05:11:58;;;;;;;11.20;9.27;;;-1.50;99.90;;;;;;5032232;28;20176;-70
2022/01/25 05:14:31;;;;;;;11.07;9.27;;;-1.50;99.90;;;;;;5027223;28;20722;-70
2022/01/25 05:17:00;;;;;;;11.40;8.63;;;-1.50;99.90;;;;;;5024577;28;20180;-71
2022/01/25 05:22:05;;;;;;;10.03;8.97;;;-1.50;99.90;;;;;;5022196;28;20172;-70
2022/01/25 05:24:40;;;;;;;11.90;9.43;;;-1.50;99.90;;;;;;5018238;28;20206;-70
2022/01/25 05:27:08;;;;;;;12.97;9.60;;;-1.50;99.90;;;;;;5017839;28;20204;-71
2022/01/25 05:29:34;;;;;;;14.13;9.87;;;-1.50;99.90;;;;;;5023623;28;20219;-70
2022/01/25 05:31:59;;;;;;;15.43;10.20;;;-1.50;99.90;;;;;;5024241;28;20205;-70
2022/01/25 05:34:26;;;;;;;11.47;9.83;;;-1.60;99.90;;;;;;5030368;28;20203;-70
2022/01/25 05:36:52;;;;;;;13.13;9.10;;;-1.70;99.90;;;;;;5026492;28;20703;-70
2022/01/25 05:39:26;;;;;;;10.83;9.10;;;-1.70;99.90;;;;;;5020460;28;20656;-71
2022/01/25 05:41:57;;;;;;;12.03;8.90;;;-1.70;99.90;;;;;;5025761;28;20260;-71
2022/01/25 05:44:37;;;;;;;10.50;9.07;;;-1.60;99.90;;;;;;5023016;28;20280;-70
2022/01/25 05:47:06;;;;;;;13.03;8.83;;;-1.60;99.90;;;;;;5030146;28;20189;-74
2022/01/25 05:49:33;;;;;;;12.93;9.67;;;-1.60;99.90;;;;;;5037936;28;20195;-74
2022/01/25 05:51:59;;;;;;;13.03;11.00;;;-1.60;99.90;;;;;;5029186;28;20184;-74
2022/01/25 05:54:25;;;;;;;12.43;9.77;;;-1.60;99.90;;;;;;5030370;28;20203;-74
2022/01/25 05:56:50;;;;;;;12.67;9.97;;;-1.60;99.90;;;;;;5030910;28;20641;-73
2022/01/25 05:59:16;;;;;;;14.33;10.07;;;-1.70;99.90;;;;;;5029447;28;20181;-73
2022/01/25 06:01:44;;;;;;;15.10;9.93;;;-1.70;99.90;;;;;;5030633;28;20584;-73
2022/01/25 06:04:10;;;;;;;15.20;10.50;;;-1.50;99.90;;;;;;5027320;28;20207;-73
2022/01/25 06:06:35;;;;;;;15.13;10.33;;;-1.40;99.90;;;;;;5026012;28;20189;-73
2022/01/25 06:09:01;;;;;;;15.47;11.30;;;-1.30;99.90;;;;;;5026212;28;20346;-73
2022/01/25 06:11:27;;;;;;;19.27;12.40;;;-1.20;99.90;;;;;;5029694;28;20180;-73
2022/01/25 06:13:52;;;;;;;15.57;10.33;;;-1.10;99.90;;;;;;5031240;28;20266;-72
2022/01/25 06:16:18;;;;;;;15.33;11.33;;;-1.20;99.90;;;;;;5022918;28;20287;-72
2022/01/25 06:18:45;;;;;;;18.23;12.73;;;-1.30;99.90;;;;;;5026605;28;20184;-73
2022/01/25 06:21:10;;;;;;;27.67;13.87;;;-1.20;99.90;;;;;;5025185;28;20191;-73
2022/01/25 06:23:36;;;;;;;18.87;12.07;;;-1.20;99.90;;;;;;5035696;28;20180;-73
2022/01/25 06:26:02;;;;;;;22.77;12.70;;;-1.00;99.90;;;;;;5032975;28;20230;-70
2022/01/25 06:28:28;;;;;;;19.50;11.63;;;-1.00;99.90;;;;;;5019274;28;20233;-69
2022/01/25 06:30:54;;;;;;;20.70;11.77;;;-1.00;99.90;;;;;;5028927;28;20185;-69
2022/01/25 06:33:20;;;;;;;18.90;13.13;;;-1.10;99.90;;;;;;5026699;28;20276;-69
2022/01/25 06:35:46;;;;;;;25.13;13.33;;;-1.00;99.90;;;;;;5026681;28;20205;-69
2022/01/25 06:38:13;;;;;;;23.17;13.70;;;-1.00;99.90;;;;;;5020373;28;20272;-69
2022/01/25 06:40:38;;;;;;;19.47;12.13;;;-1.00;99.90;;;;;;5024915;28;20178;-70
2022/01/25 06:43:04;;;;;;;24.27;14.00;;;-1.00;99.90;;;;;;5028688;28;20234;-70
2022/01/25 06:45:30;;;;;;;19.13;12.27;;;-1.00;99.90;;;;;;5027508;28;20207;-69
2022/01/25 06:47:56;;;;;;;22.00;12.53;;;-0.90;99.90;;;;;;5028101;28;20254;-69
2022/01/25 06:50:25;;;;;;;18.00;11.33;;;-0.80;99.90;;;;;;5028642;28;20224;-69
2022/01/25 06:52:51;;;;;;;17.97;11.43;;;-0.60;99.90;;;;;;5028814;28;20200;-69
2022/01/25 06:55:18;;;;;;;14.77;9.73;;;-0.40;99.90;;;;;;5024791;28;20211;-69
2022/01/25 06:57:46;;;;;;;19.60;12.27;;;-0.30;99.90;;;;;;5024664;28;20189;-69
2022/01/25 07:00:17;;;;;;;19.87;12.23;;;-0.30;99.90;;;;;;5039002;28;20295;-69
2022/01/25 07:02:43;;;;;;;20.60;13.17;;;-0.20;99.90;;;;;;5014713;28;20188;-69
2022/01/25 07:05:09;;;;;;;20.53;12.07;;;-0.20;99.90;;;;;;5027671;28;20212;-69
2022/01/25 07:07:37;;;;;;;21.13;14.30;;;-0.30;99.90;;;;;;5016257;28;20270;-69
2022/01/25 07:10:03;;;;;;;20.37;12.70;;;-0.20;99.90;;;;;;5026651;28;20189;-70
2022/01/25 07:12:29;;;;;;;21.47;13.47;;;-0.30;99.90;;;;;;5023857;28;20185;-70
2022/01/25 07:14:55;;;;;;;16.63;10.50;;;-0.20;99.90;;;;;;5017661;28;21069;-71
2022/01/25 07:17:20;;;;;;;20.43;13.00;;;-0.10;99.90;;;;;;5016015;28;20192;-71
2022/01/25 07:19:46;;;;;;;19.20;13.23;;;0.00;99.90;;;;;;5020653;28;20190;-69
2022/01/25 07:22:12;;;;;;;22.77;14.30;;;0.10;99.90;;;;;;5017109;28;20181;-70
2022/01/25 07:24:37;;;;;;;21.43;13.17;;;0.10;99.90;;;;;;5024489;28;20216;-69
2022/01/25 07:27:03;;;;;;;20.50;13.93;;;0.10;99.90;;;;;;5033156;28;20185;-70
2022/01/25 07:29:29;;;;;;;22.17;14.07;;;0.20;99.90;;;;;;5031190;28;20192;-70
2022/01/25 07:31:55;;;;;;;22.17;14.23;;;0.00;99.90;;;;;;5030938;28;20181;-70
2022/01/25 07:34:21;;;;;;;21.10;13.70;;;0.10;99.90;;;;;;5034689;28;20654;-69
2022/01/25 07:36:47;;;;;;;18.53;13.63;;;0.20;99.90;;;;;;5027858;28;20192;-70
2022/01/25 07:39:13;;;;;;;21.40;14.37;;;0.30;99.90;;;;;;5032613;28;20219;-70
2022/01/25 07:41:39;;;;;;;21.47;12.77;;;0.30;99.90;;;;;;5032669;28;20191;-69
2022/01/25 07:44:05;;;;;;;18.30;12.60;;;0.30;99.90;;;;;;5037591;28;20292;-69
2022/01/25 07:46:31;;;;;;;20.20;13.87;;;0.50;99.90;;;;;;5029574;28;20189;-70
2022/01/25 07:48:57;;;;;;;20.90;14.10;;;0.50;99.90;;;;;;5031486;28;20184;-71
2022/01/25 07:51:25;;;;;;;18.37;13.10;;;0.50;99.90;;;;;;5030776;28;20552;-69
2022/01/25 07:53:52;;;;;;;18.57;12.37;;;0.60;99.90;;;;;;5025157;28;20632;-69
2022/01/25 07:56:17;;;;;;;23.93;13.60;;;0.40;99.90;;;;;;5019110;28;20645;-69
2022/01/25 07:58:43;;;;;;;20.20;12.97;;;0.30;99.90;;;;;;5026388;28;20193;-70
2022/01/25 08:01:08;;;;;;;19.93;12.87;;;0.30;99.90;;;;;;5025049;28;20193;-72
2022/01/25 08:03:34;;;;;;;17.97;12.33;;;0.40;99.90;;;;;;5025454;28;20193;-72
2022/01/25 08:06:00;;;;;;;19.20;12.67;;;0.60;99.90;;;;;;5023636;28;20726;-70
2022/01/25 08:08:25;;;;;;;19.67;12.20;;;0.80;99.90;;;;;;5029595;28;20275;-75
2022/01/25 08:10:51;;;;;;;15.03;11.73;;;1.00;99.90;;;;;;5028530;28;20201;-74
2022/01/25 08:13:16;;;;;;;17.97;12.50;;;1.00;99.90;;;;;;5033665;28;20192;-73
2022/01/25 08:15:43;;;;;;;18.47;12.90;;;0.80;99.90;;;;;;5024242;28;20300;-73
2022/01/25 08:18:08;;;;;;;19.17;13.37;;;0.80;99.90;;;;;;5028378;28;20192;-74
2022/01/25 08:20:34;;;;;;;15.87;12.77;;;0.90;99.90;;;;;;5025239;28;20181;-75
2022/01/25 08:23:00;;;;;;;17.87;11.93;;;1.00;99.90;;;;;;5031074;28;20680;-74
2022/01/25 08:25:26;;;;;;;16.00;11.87;;;1.10;99.90;;;;;;5026796;28;20302;-73
2022/01/25 08:27:52;;;;;;;15.00;11.63;;;1.00;99.90;;;;;;5036725;28;20195;-74
2022/01/25 08:30:18;;;;;;;16.97;12.17;;;1.00;99.90;;;;;;5033788;28;20173;-75
2022/01/25 08:32:43;;;;;;;17.07;12.50;;;1.10;99.90;;;;;;5037007;28;20246;-74
2022/01/25 08:35:10;;;;;;;16.27;12.97;;;1.10;99.90;;;;;;5031281;28;20295;-71
2022/01/25 08:37:37;;;;;;;19.77;12.33;;;1.30;99.90;;;;;;5032588;28;20191;-72
2022/01/25 08:40:05;;;;;;;15.63;12.07;;;1.40;99.90;;;;;;5030213;28;20185;-72
2022/01/25 08:42:31;;;;;;;15.40;11.97;;;1.30;99.90;;;;;;5026805;28;20340;-72
2022/01/25 08:44:56;;;;;;;15.97;11.27;;;1.50;99.90;;;;;;5034044;28;20208;-72
2022/01/25 08:47:22;;;;;;;17.60;12.87;;;1.70;99.90;;;;;;5032705;28;20180;-71
2022/01/25 08:49:47;;;;;;;16.17;12.67;;;1.40;99.90;;;;;;5028849;28;20224;-72
2022/01/25 08:52:13;;;;;;;16.43;11.87;;;1.60;99.90;;;;;;5034694;28;20227;-70
2022/01/25 08:54:39;;;;;;;17.97;12.73;;;1.60;99.90;;;;;;5021160;28;20252;-73
2022/01/25 08:57:05;;;;;;;17.23;11.20;;;1.60;99.90;;;;;;5033061;28;20195;-72
2022/01/25 08:59:31;;;;;;;17.83;13.50;;;1.70;99.90;;;;;;5034006;28;20210;-71
2022/01/25 09:01:56;;;;;;;15.90;12.27;;;1.70;99.90;;;;;;5031674;28;20647;-69
2022/01/25 09:04:22;;;;;;;16.80;13.60;;;1.70;99.90;;;;;;5019928;28;20262;-69
2022/01/25 09:06:48;;;;;;;17.63;12.53;;;1.90;99.90;;;;;;5031322;28;20191;-68
2022/01/25 09:09:14;;;;;;;15.70;12.57;;;1.80;99.90;;;;;;5030087;28;20187;-69
2022/01/25 09:11:41;;;;;;;16.17;12.67;;;1.70;99.90;;;;;;5019081;28;20270;-70
2022/01/25 09:14:08;;;;;;;19.03;14.00;;;1.90;99.90;;;;;;5029026;28;20246;-70
2022/01/25 09:16:35;;;;;;;20.70;14.67;;;2.10;99.90;;;;;;5025265;28;20220;-70
2022/01/25 09:19:01;;;;;;;20.47;14.77;;;2.20;99.90;;;;;;5021298;28;20180;-71
2022/01/25 09:21:27;;;;;;;20.23;14.13;;;2.00;99.90;;;;;;5033544;28;20203;-69
2022/01/25 09:23:54;;;;;;;22.30;14.43;;;2.00;99.90;;;;;;5033246;28;20677;-69
2022/01/25 09:26:21;;;;;;;22.00;16.13;;;1.90;99.90;;;;;;5030023;28;20177;-69
2022/01/25 09:28:46;;;;;;;20.53;15.93;;;1.70;99.90;;;;;;5029611;28;20577;-66
2022/01/25 09:31:12;;;;;;;19.60;15.17;;;1.60;99.90;;;;;;5033868;28;20299;-68
2022/01/25 09:33:38;;;;;;;19.33;14.90;;;2.00;99.90;;;;;;5032317;28;20215;-68
2022/01/25 09:36:04;;;;;;;19.87;14.37;;;2.20;99.90;;;;;;5028389;28;20220;-68
2022/01/25 09:38:31;;;;;;;18.73;13.73;;;2.40;99.90;;;;;;5031189;28;20239;-66
2022/01/25 09:40:57;;;;;;;19.07;13.87;;;2.60;99.90;;;;;;5033644;28;20184;-69
2022/01/25 09:43:24;;;;;;;19.03;15.10;;;2.60;99.90;;;;;;5021914;28;20810;-67
2022/01/25 09:45:49;;;;;;;19.93;14.07;;;2.70;99.90;;;;;;5027135;28;20204;-67
2022/01/25 09:48:17;;;;;;;22.87;14.90;;;2.70;99.90;;;;;;5029045;28;20191;-67
2022/01/25 09:50:43;;;;;;;24.10;15.37;;;2.60;99.90;;;;;;5038355;28;20238;-67
2022/01/25 09:53:09;;;;;;;26.63;16.03;;;2.40;99.90;;;;;;5032154;28;20197;-69
2022/01/25 09:55:41;;;;;;;23.93;15.33;;;2.20;99.90;;;;;;5030210;28;20296;-68
2022/01/25 09:58:08;;;;;;;28.93;16.37;;;2.20;99.90;;;;;;5031201;28;20177;-68
2022/01/25 10:00:36;;;;;;;25.80;16.00;;;2.30;99.90;;;;;;5031514;28;20197;-71
2022/01/25 10:03:19;;;;;;;26.50;16.57;;;2.50;99.90;;;;;;5026321;28;20564;-67
2022/01/25 10:05:48;;;;;;;26.53;17.17;;;2.30;99.90;;;;;;5032453;28;20204;-66
2022/01/25 10:08:25;;;;;;;25.00;16.10;;;2.30;99.90;;;;;;5034252;28;20183;-68
2022/01/25 10:10:56;;;;;;;28.90;17.87;;;2.40;99.90;;;;;;5029181;28;20284;-68
2022/01/25 10:13:29;;;;;;;25.73;16.43;;;2.10;99.90;;;;;;5026671;28;20220;-66
2022/01/25 10:16:01;;;;;;;26.53;16.97;;;2.30;99.90;;;;;;5028162;28;20212;-69
2022/01/25 10:18:42;;;;;;;23.77;15.13;;;2.30;99.90;;;;;;5031261;28;20180;-68
2022/01/25 10:21:24;;;;;;;28.87;15.70;;;2.40;99.90;;;;;;5035220;28;20511;-68
2022/01/25 10:24:08;;;;;;;27.80;15.57;;;2.60;99.90;;;;;;5037775;28;20192;-67
2022/01/25 10:26:50;;;;;;;24.30;13.10;;;2.50;99.90;;;;;;5039163;28;20543;-68
2022/01/25 10:29:36;;;;;;;23.30;14.87;;;2.60;99.90;;;;;;5031389;28;20184;-68
2022/01/25 10:32:09;;;;;;;25.43;15.03;;;2.30;99.90;;;;;;5035921;28;20202;-68
2022/01/25 10:34:40;;;;;;;22.63;14.50;;;2.40;99.90;;;;;;5034482;28;20658;-68
2022/01/25 10:37:08;;;;;;;22.37;13.27;;;2.20;99.90;;;;;;5032315;28;20691;-68
2022/01/25 10:39:36;;;;;;;22.83;13.87;;;2.10;99.90;;;;;;5029352;28;20243;-68
2022/01/25 10:42:10;;;;;;;23.27;14.13;;;2.30;99.90;;;;;;5033470;28;20203;-68
2022/01/25 10:44:49;;;;;;;20.13;14.60;;;2.50;99.90;;;;;;5033379;28;20204;-68
2022/01/25 10:47:15;;;;;;;24.47;16.23;;;2.60;99.90;;;;;;5033313;28;20186;-67
2022/01/25 10:49:46;;;;;;;22.00;13.47;;;2.50;99.90;;;;;;5031491;28;20179;-67
2022/01/25 10:52:11;;;;;;;21.27;13.57;;;2.40;99.90;;;;;;5034766;28;20223;-68
2022/01/25 10:54:41;;;;;;;21.53;15.07;;;2.40;99.90;;;;;;5018814;28;20228;-68
2022/01/25 10:57:21;;;;;;;24.07;15.80;;;2.40;99.90;;;;;;5024789;28;20184;-68
2022/01/25 10:59:58;;;;;;;20.60;13.77;;;2.40;99.90;;;;;;5032837;28;20267;-68
2022/01/25 11:02:24;;;;;;;23.40;15.47;;;2.50;99.90;;;;;;5035450;28;20179;-68
2022/01/25 11:04:51;;;;;;;22.10;14.60;;;2.60;99.90;;;;;;5039425;28;20211;-68
2022/01/25 11:07:18;;;;;;;20.10;14.17;;;2.50;99.90;;;;;;5040223;28;20263;-69
2022/01/25 11:09:46;;;;;;;23.43;12.13;;;2.60;99.90;;;;;;5033995;28;20188;-69
2022/01/25 11:12:18;;;;;;;24.43;13.77;;;2.50;99.90;;;;;;5038876;28;20271;-69
2022/01/25 11:14:53;;;;;;;24.43;16.47;;;2.50;99.90;;;;;;5030920;28;20236;-70
2022/01/25 11:17:21;;;;;;;23.67;14.20;;;2.40;99.90;;;;;;5022711;28;20188;-71
2022/01/25 11:19:46;;;;;;;19.03;13.00;;;2.40;99.90;;;;;;5031844;28;20682;-69
2022/01/25 11:22:19;;;;;;;18.80;12.33;;;2.50;99.90;;;;;;5031741;28;20185;-71
2022/01/25 11:24:51;;;;;;;22.00;15.07;;;2.30;99.90;;;;;;5033377;28;20250;-69
2022/01/25 11:27:19;;;;;;;19.10;12.50;;;2.40;99.90;;;;;;5030898;28;20302;-69
2022/01/25 11:29:47;;;;;;;23.57;14.73;;;2.50;99.90;;;;;;5033386;28;20222;-70
2022/01/25 11:32:18;;;;;;;22.53;14.13;;;2.60;99.90;;;;;;5039035;28;20191;-69
2022/01/25 11:34:44;;;;;;;23.60;13.50;;;2.70;99.90;;;;;;5030451;28;20215;-69
2022/01/25 11:37:11;;;;;;;24.00;14.40;;;2.70;99.90;;;;;;5037221;28;20197;-68
2022/01/25 11:39:42;;;;;;;20.17;13.63;;;2.70;99.90;;;;;;5033827;28;20192;-68
2022/01/25 11:42:11;;;;;;;24.87;16.00;;;2.60;99.90;;;;;;5029054;28;20188;-68
2022/01/25 11:44:51;;;;;;;22.70;14.37;;;2.70;99.90;;;;;;5031240;28;20717;-68
2022/01/25 11:47:19;;;;;;;23.07;14.00;;;2.70;99.90;;;;;;5039620;28;20654;-68
2022/01/25 11:50:09;;;;;;;21.40;12.60;;;2.70;99.90;;;;;;5037983;28;20180;-68
2022/01/25 11:52:35;;;;;;;22.83;11.40;;;2.60;99.90;;;;;;5029173;28;20200;-68
2022/01/25 11:55:16;;;;;;;18.53;12.60;;;2.50;99.90;;;;;;5034866;28;20237;-68
2022/01/25 11:57:52;;;;;;;16.33;10.50;;;2.30;99.90;;;;;;5031463;28;20181;-68
2022/01/25 12:00:36;;;;;;;17.27;10.90;;;2.30;99.90;;;;;;5025891;28;20547;-68
2022/01/25 12:03:04;;;;;;;24.50;14.60;;;2.40;99.90;;;;;;5039239;28;20176;-68
2022/01/25 12:05:32;;;;;;;20.03;12.13;;;2.30;99.90;;;;;;5042449;28;20226;-68
2022/01/25 12:08:11;;;;;;;19.97;13.47;;;2.20;99.90;;;;;;5027893;28;20180;-68
2022/01/25 12:10:40;;;;;;;19.23;12.13;;;2.20;99.90;;;;;;5026747;28;20188;-69
2022/01/25 12:13:18;;;;;;;24.90;13.13;;;2.10;99.90;;;;;;5022556;28;20778;-68
2022/01/25 12:15:45;;;;;;;19.67;13.60;;;2.10;99.90;;;;;;5018158;28;20235;-68
2022/01/25 12:18:49;;;;;;;19.37;13.07;;;2.20;99.90;;;;;;5024418;28;21087;-69
2022/01/25 12:21:14;;;;;;;15.53;10.17;;;2.10;99.90;;;;;;5038266;28;20207;-69
2022/01/25 12:36:44;;;;;;;18.93;12.57;;;2.20;99.90;;;;;;5123438;27;20579;-71
2022/01/25 12:39:11;;;;;;;20.33;13.00;;;1.90;99.90;;;;;;5102741;28;20185;-75
2022/01/25 12:41:38;;;;;;;24.03;15.87;;;1.90;99.90;;;;;;5109780;28;20197;-74
2022/01/25 12:44:06;;;;;;;21.03;13.37;;;1.90;99.90;;;;;;5096792;28;20191;-72
2022/01/25 12:46:37;;;;;;;23.07;13.57;;;1.80;99.90;;;;;;5029551;28;20233;-67
2022/01/25 12:49:16;;;;;;;17.83;12.30;;;1.90;99.90;;;;;;4920426;29;20200;-68
2022/01/25 12:51:44;;;;;;;19.27;12.77;;;2.10;99.90;;;;;;4850274;29;20657;-69
2022/01/25 12:54:12;;;;;;;17.57;11.43;;;2.20;99.90;;;;;;4836024;29;20688;-68
2022/01/25 12:56:47;;;;;;;14.13;9.37;;;2.20;99.90;;;;;;4800782;29;20326;-69
2022/01/25 12:59:23;;;;;;;15.03;10.57;;;2.20;99.90;;;;;;4739939;30;20209;-68
2022/01/25 13:04:21;;;;;;;12.57;9.33;;;2.00;99.90;;;;;;5180068;27;20296;-69
2022/01/25 13:06:51;;;;;;;13.07;9.53;;;1.90;99.90;;;;;;5176563;27;20207;-69
2022/01/25 13:09:26;;;;;;;12.20;9.83;;;2.10;99.90;;;;;;5151096;27;20275;-69
2022/01/25 13:17:14;;;;;;;12.47;9.20;;;2.00;99.90;;;;;;5043289;28;20285;-69
2022/01/25 13:19:51;;;;;;;11.93;8.97;;;1.80;99.90;;;;;;4973260;28;20208;-69
2022/01/25 13:22:20;;;;;;;16.37;11.53;;;1.90;99.90;;;;;;4738746;29;1306013;-69
2022/01/25 13:24:59;;;;;;;16.10;11.20;;;2.20;99.90;;;;;;4615942;30;20758;-69
2022/01/25 13:27:30;;;;;;;16.80;12.07;;;2.30;99.90;;;;;;4595765;30;1097500;-70
2022/01/25 13:32:43;;;;;;;16.83;11.13;;;2.10;99.90;;;;;;4608788;31;20203;-69
2022/01/25 13:35:53;;;;;;;17.17;11.47;;;2.00;99.90;;;;;;4612171;31;20671;-69
2022/01/25 13:38:17;;;;;;;11.70;9.30;;;1.90;99.90;;;;;;4610404;31;20208;-70
2022/01/25 13:46:09;;;;;;;10.53;9.43;;;1.80;99.90;;;;;;4604548;31;20212;-69
2022/01/25 13:48:35;;;;;;;13.77;10.20;;;1.70;99.90;;;;;;4606686;31;20286;-69
2022/01/25 13:51:06;;;;;;;13.47;9.30;;;1.70;99.90;;;;;;4607576;31;20732;-69
2022/01/25 13:53:33;;;;;;;11.07;7.87;;;1.80;99.90;;;;;;4608629;31;20203;-71
2022/01/25 13:56:00;;;;;;;9.77;7.73;;;1.90;99.90;;;;;;4610433;31;20226;-71
2022/01/25 13:58:28;;;;;;;9.40;7.70;;;2.10;99.90;;;;;;4610711;31;20201;-71
2022/01/25 14:00:56;;;;;;;8.37;7.47;;;1.90;99.90;;;;;;4609154;31;20220;-71
2022/01/25 14:03:28;;;;;;;13.50;9.30;;;1.70;99.90;;;;;;4610861;31;20259;-72
2022/01/25 14:05:55;;;;;;;12.80;9.03;;;1.40;99.90;;;;;;4610006;31;20219;-72
2022/01/25 14:08:42;;;;;;;10.23;8.60;;;1.30;99.90;;;;;;4610272;31;20252;-72
2022/01/25 14:11:29;;;;;;;10.47;8.37;;;1.40;99.90;;;;;;4609959;31;20192;-71
2022/01/25 14:22:31;;;;;;;13.37;9.50;;;1.40;99.90;;;;;;4560951;31;20219;-71
2022/01/25 14:24:57;;;;;;;12.03;10.17;;;1.40;99.90;;;;;;4631677;30;20215;-71
2022/01/25 14:27:29;;;;;;;11.00;9.03;;;1.40;99.90;;;;;;4735360;30;20223;-70
2022/01/25 14:29:55;;;;;;;12.30;9.67;;;1.50;99.90;;;;;;4735821;30;20187;-71
2022/01/25 14:32:35;;;;;;;12.67;9.40;;;1.60;99.90;;;;;;4718243;30;20688;-70
2022/01/25 14:35:11;;;;;;;12.17;10.53;;;1.70;99.90;;;;;;4717761;30;20594;-70
2022/01/25 14:37:46;;;;;;;14.70;10.70;;;1.70;99.90;;;;;;4733077;30;20686;-71
2022/01/25 14:40:15;;;;;;;14.00;10.80;;;1.50;99.90;;;;;;4728957;30;20188;-71
2022/01/25 14:42:43;;;;;;;14.93;10.33;;;1.30;99.90;;;;;;4717915;30;20354;-71
2022/01/25 14:45:15;;;;;;;13.30;10.00;;;1.20;99.90;;;;;;4718287;30;20237;-72
2022/01/25 14:47:45;;;;;;;12.43;10.43;;;1.30;99.90;;;;;;4718231;30;20300;-71
2022/01/25 14:50:22;;;;;;;12.80;9.43;;;1.40;99.90;;;;;;4721796;30;20188;-71
2022/01/25 14:53:08;;;;;;;13.27;10.27;;;1.50;99.90;;;;;;4718117;30;20199;-72
2022/01/25 14:55:36;;;;;;;12.83;9.43;;;1.50;99.90;;;;;;4717622;30;20218;-72